• Join FlightAware (Why Join?)
  • Login
  • US Flag 
05:25AM EDT


 

Airport Tracker/Info


-or-


 

Live Flight TrackerFlight Track Log ✈ AAL1686 ✈ 08-May-2013 ✈ KLAX - KSTL

Flight Track Log - Related Links

Times and Time Zones

All times are in EDT time to prevent confusion due to time zone crossing. See the AAL1686 flight status page for this flight to view local times or setup timezone preferences in your user account.

Time Position Orientation Groundspeed Altitude Reporting Facility
EDT Latitude Longitude Course Direction KTS MPH feet Rate Location/Type
07:39PM 33.9333 -118.4500 90° East 191 220 2,100  Level Southern California TRACON
07:40PM 33.8833 -118.5167 228° Southwest 258 297 4,600 2,760 Climbing Southern California TRACON
07:41PM 33.7667 -118.0047 90° East  Level FlightAware Approximate
07:41PM 33.8000 -118.5333 189° South 284 327 7,700  Level Southern California TRACON
07:42PM 33.7667 -117.8512 90° East  Level FlightAware Approximate
07:42PM 33.7194 -118.4867 154° Southeast 306 352 10,500  Level Los Angeles Center
07:43PM 33.7500 -117.7016 90° East  Level FlightAware Approximate
07:43PM 33.6461 -118.4203 143° Southeast 335 386 12,900  Level Los Angeles Center
07:44PM 33.7333 -117.5682 90° East  Level FlightAware Approximate
07:44PM 33.6292 -118.3069 100° East 359 413 15,300  Level Los Angeles Center
07:45PM 33.6336 -118.1594 88° East 376 433 17,300 1,740 Climbing Los Angeles Center
07:46PM 33.6350 -118.0217 89° East 406 467 19,000 1,740 Climbing Los Angeles Center
07:47PM 33.6350 -117.8781 90° East 426 490 21,000 1,740 Climbing Los Angeles Center
07:48PM 33.6361 -117.7333 89° East 435 501 22,700 1,560 Climbing Los Angeles Center
07:50PM 33.6364 -117.5822 90° East 453 521 24,300 1,440 Climbing Los Angeles Center
07:51PM 33.6358 -117.3939 90° East 471 542 25,700 1,500 Climbing Los Angeles Center
07:52PM 33.6350 -117.2339 90° East 482 555 27,400 1,500 Climbing Los Angeles Center
07:53PM 33.6347 -117.0731 90° East 485 558 28,800 1,320 Climbing Los Angeles Center
07:54PM 33.6339 -116.9114 90° East 488 562 30,200 1,260 Climbing Los Angeles Center
07:55PM 33.6328 -116.7436 90° East 485 558 31,500 1,140 Climbing Los Angeles Center
07:56PM 33.6328 -116.5822 90° East 484 557 32,600 1,020 Climbing Los Angeles Center
07:57PM 33.6308 -116.4228 91° East 477 549 33,700 900 Climbing Los Angeles Center
07:58PM 33.6289 -116.2653 91° East 471 542 34,500 600 Climbing Los Angeles Center
07:59PM 33.6533 -116.0817 81° East 463 533 35,000 240 Climbing Los Angeles Center
08:00PM 33.7017 -115.9358 68° East 469 540 35,000  Level Los Angeles Center
08:01PM 33.7472 -115.7919 69° East 462 532 35,000  Level Los Angeles Center
08:02PM 33.7944 -115.6464 69° East 464 534 35,000  Level Los Angeles Center
08:03PM 33.8414 -115.5000 69° East 469 540 35,000 -60 Level Los Angeles Center
08:04PM 33.8869 -115.3542 69° East 466 536 34,900  Descending Los Angeles Center
08:05PM 33.9436 -115.1803 69° East 467 537 35,000  Climbing Los Angeles Center
08:06PM 33.9906 -115.0331 69° East 468 539 35,000  Level Los Angeles Center
08:07PM 34.0375 -114.8847 69° East 476 548 35,000  Level Los Angeles Center
08:08PM 34.0828 -114.7408 69° East 465 535 35,000  Level Los Angeles Center
08:09PM 34.1281 -114.5919 70° East 470 541 35,000  Level Los Angeles Center
08:10PM 34.1706 -114.4414 71° East 472 543 35,000  Level Los Angeles Center
08:11PM 34.2200 -114.2606 72° East 474 545 35,000  Level Los Angeles Center
08:12PM 34.2681 -114.0953 71° East 476 548 35,000  Level Albuquerque Center
08:13PM 34.3086 -113.9456 72° East 473 544 35,000  Level Albuquerque Center
08:14PM 34.3514 -113.7958 71° East 472 543 35,000  Level Albuquerque Center
08:15PM 34.3925 -113.6450 72° East 473 544 35,000  Level Albuquerque Center
08:17PM 34.4314 -113.4950 73° East 471 542 35,000  Level Albuquerque Center
08:18PM 34.4819 -113.3156 71° East 472 543 35,000  Level Albuquerque Center
08:19PM 34.5219 -113.1619 72° East 476 548 35,000  Level Albuquerque Center
08:20PM 34.5625 -113.0111 72° East 476 548 35,000  Level Albuquerque Center
08:21PM 34.6031 -112.8606 72° East 475 547 35,000  Level Albuquerque Center
08:22PM 34.6428 -112.7111 72° East 472 543 35,000  Level Albuquerque Center
08:23PM 34.6897 -112.5306 72° East 472 543 35,000  Level Albuquerque Center
08:24PM 34.7261 -112.3800 74° East 470 541 35,000  Level Albuquerque Center
08:25PM 34.7603 -112.2275 75° East 472 543 35,000  Level Albuquerque Center
08:26PM 34.7953 -112.0739 74° East 475 547 35,000  Level Albuquerque Center
08:27PM 34.8306 -111.9189 74° East 477 549 35,000  Level Albuquerque Center
08:28PM 34.8661 -111.7628 74° East 480 552 35,000  Level Albuquerque Center
08:29PM 34.9081 -111.5728 75° East 483 556 35,000  Level Albuquerque Center
08:30PM 34.9442 -111.4144 74° East 484 557 35,000  Level Albuquerque Center
08:31PM 34.9781 -111.2544 75° East 486 559 35,000  Level Albuquerque Center
08:32PM 35.0125 -111.0969 75° East 483 556 35,000  Level Albuquerque Center
08:33PM 35.0475 -110.9328 75° East 495 570 35,000  Level Albuquerque Center
08:34PM 35.0842 -110.7636 75° East 488 562 35,000  Level Albuquerque Center
08:35PM 35.1228 -110.5856 75° East 486 559 35,000  Level Albuquerque Center
08:36PM 35.1561 -110.4325 75° East 487 560 35,000  Level Albuquerque Center
08:37PM 35.1883 -110.2792 76° East 487 560 35,000  Level Albuquerque Center
08:38PM 35.2261 -110.1006 75° East 487 560 35,000  Level Albuquerque Center
08:39PM 35.2589 -109.9458 75° East 489 563 35,000  Level Albuquerque Center
08:40PM 35.2961 -109.7658 76° East 491 565 35,000  Level Albuquerque Center
08:41PM 35.3289 -109.6078 76° East 499 574 35,000  Level Albuquerque Center
08:42PM 35.3647 -109.4297 76° East 489 563 35,000  Level Albuquerque Center
08:43PM 35.3958 -109.2764 76° East 486 559 35,000  Level Albuquerque Center
08:44PM 35.4278 -109.1219 76° East 488 562 35,000  Level Albuquerque Center
08:45PM 35.4639 -108.9408 76° East 491 565 35,000  Level Albuquerque Center
08:46PM 35.5000 -108.7886 74° East 490 564 35,000  Level Albuquerque Center
08:47PM 35.5483 -108.6125 71° East 491 565 35,000  Level Albuquerque Center
08:48PM 35.5900 -108.4614 71° East 490 564 35,000  Level Albuquerque Center
08:49PM 35.6383 -108.2831 72° East 493 567 35,000  Level Albuquerque Center
08:50PM 35.6786 -108.1311 72° East 492 566 35,000  Level Albuquerque Center
08:51PM 35.7253 -107.9528 72° East 492 566 35,000  Level Albuquerque Center
08:52PM 35.7647 -107.8025 72° East 486 559 35,000  Level Albuquerque Center
08:54PM 35.8103 -107.6261 72° East 486 559 35,000  Level Albuquerque Center
08:55PM 35.8503 -107.4725 72° East 490 564 35,000  Level Albuquerque Center
08:56PM 35.8903 -107.3183 72° East 492 566 35,000  Level Albuquerque Center
08:57PM 35.9339 -107.1503 72° East 490 564 35,000  Level Albuquerque Center
08:58PM 35.9764 -106.9867 72° East 495 570 35,000  Level Albuquerque Center
08:59PM 36.0183 -106.8236 72° East 497 572 35,000  Level Albuquerque Center
09:00PM 36.0589 -106.6625 73° East 492 566 35,000  Level Albuquerque Center
09:01PM 36.1000 -106.5000 73° East 492 566 35,000  Level Albuquerque Center
09:02PM 36.1489 -106.3064 73° East 492 566 35,000  Level Albuquerque Center
09:03PM 36.1889 -106.1442 73° East 492 566 35,000  Level Albuquerque Center
09:04PM 36.2292 -105.9842 73° East 490 564 35,000  Level Albuquerque Center
09:05PM 36.2689 -105.8181 73° East 497 572 35,000  Level Albuquerque Center
09:06PM 36.3056 -105.6536 74° East 497 572 35,000  Level Albuquerque Center
09:07PM 36.3467 -105.4900 73° East 492 566 35,000  Level Albuquerque Center
09:08PM 36.3856 -105.3228 74° East 496 571 35,000  Level Albuquerque Center
09:09PM 36.4244 -105.1592 73° East 492 566 35,000  Level Albuquerque Center
09:10PM 36.4692 -104.9689 74° East 489 563 35,000  Level Albuquerque Center
09:11PM 36.5033 -104.8078 75° East 480 552 35,000  Level Albuquerque Center
09:12PM 36.5283 -104.6386 80° East 488 562 35,000  Level Albuquerque Center
09:13PM 36.5553 -104.4706 79° East 491 565 35,000  Level Albuquerque Center
09:14PM 36.5822 -104.3011 79° East 492 566 35,000  Level Albuquerque Center
09:15PM 36.6083 -104.1297 79° East 497 572 35,000  Level Albuquerque Center
09:16PM 36.6333 -103.9636 79° East 489 563 35,000  Level Albuquerque Center
09:17PM 36.6589 -103.7967 79° East 487 560 35,000  Level Albuquerque Center
09:18PM 36.6825 -103.6397 79° East 486 559 35,000  Level Albuquerque Center
09:19PM 36.7089 -103.4528 80° East 490 564 35,000  Level Albuquerque Center
09:20PM 36.7325 -103.2953 79° East 488 562 35,000  Level Albuquerque Center
09:21PM 36.7592 -103.1086 80° East 489 563 35,000  Level Albuquerque Center
09:22PM 36.7822 -102.9517 80° East 485 558 35,000  Level Albuquerque Center
09:23PM 36.8069 -102.7708 80° East 478 550 35,000  Level Albuquerque Center
09:24PM 36.8289 -102.6133 80° East 480 552 35,000  Level Albuquerque Center
09:25PM 36.8517 -102.4442 80° East 487 560 35,000  Level Albuquerque Center
09:26PM 36.8731 -102.2811 81° East 481 554 35,000  Level Albuquerque Center
09:27PM 36.8550 -102.1042 97° East 466 536 35,000  Level Albuquerque Center
09:28PM 36.8356 -101.9528 99° East 464 534 35,000  Level Albuquerque Center
09:29PM 36.8083 -101.7828 101° East 455 524 35,000  Level Albuquerque Center
09:30PM 36.7836 -101.6364 102° East 453 521 35,000  Level Albuquerque Center
09:31PM 36.7569 -101.4881 103° East 456 525 35,000  Level Albuquerque Center
09:32PM 36.7250 -101.3200 103° East 451 519 35,000  Level Albuquerque Center
09:33PM 36.6947 -101.1731 104° East 455 524 35,000  Level Albuquerque Center
09:35PM 36.6603 -101.0017 104° East 458 527 35,000  Level Kansas City Center
09:36PM 36.6286 -100.8528 105° East 462 532 35,000  Level Kansas City Center
09:37PM 36.5942 -100.6861 104° East 455 524 35,000  Level Kansas City Center
09:38PM 36.5614 -100.5425 106° East 453 521 35,000  Level Kansas City Center
09:39PM 36.5239 -100.3783 106° East 450 518 35,000  Level Kansas City Center
09:40PM 36.4900 -100.2300 106° East 447 514 35,000  Level Kansas City Center
09:41PM 36.4575 -100.0817 105° East 445 512 35,000  Level Kansas City Center
09:42PM 36.4250 -99.9328 105° East 446 513 35,000 -120 Level Kansas City Center
09:43PM 36.3922 -99.7853 105° East 442 509 34,800 -840 Descending Kansas City Center
09:44PM 36.3603 -99.6347 105° East 447 514 33,300 -1,620 Descending Kansas City Center
09:45PM 36.3300 -99.4800 104° East 455 524 31,600 -1,140 Descending Kansas City Center
09:46PM 36.3039 -99.3228 102° East 460 529 31,000 -1,080 Descending Kansas City Center
09:47PM 36.2747 -99.1631 103° East 467 537 29,500 -1,020 Descending Kansas City Center
09:48PM 36.2642 -99.0031 95° East 461 531 29,000 -300 Descending Kansas City Center
09:49PM 36.2736 -98.8436 86° East 459 528 29,000  Level Kansas City Center
09:50PM 36.2981 -98.6872 79° East 460 529 29,000 -60 Level Kansas City Center
09:51PM 36.3242 -98.5333 78° East 457 526 28,900 -900 Descending Kansas City Center
09:52PM 36.3642 -98.3856 71° East 458 527 27,200 -960 Descending Kansas City Center
09:53PM 36.4606 -98.2783 42° Northeast 464 534 27,000 -120 Descending Kansas City Center
09:54PM 36.5625 -98.1322 49° Northeast 465 535 27,000  Level Kansas City Center
09:55PM 36.6581 -98.0211 43° Northeast 467 537 27,000  Level Kansas City Center
09:56PM 36.7636 -97.9289 35° Northeast 460 529 27,000  Level Kansas City Center
09:57PM 36.8619 -97.8219 41° Northeast 459 528 27,000  Level Kansas City Center
09:58PM 36.9211 -97.6806 62° Northeast 466 536 27,000  Level Kansas City Center
09:59PM 36.9803 -97.5428 62° Northeast 458 527 27,000  Level Kansas City Center
10:00PM 37.0417 -97.4050 61° Northeast 456 525 27,000  Level Kansas City Center
10:01PM 37.1014 -97.2681 61° Northeast 454 522 27,000  Level Kansas City Center
10:02PM 37.1508 -97.1264 66° East 449 517 27,000  Level Kansas City Center
10:03PM 37.1969 -96.9747 69° East 462 532 27,000  Level Kansas City Center
10:04PM 37.2442 -96.8236 69° East 465 535 27,000  Level Kansas City Center
10:05PM 37.2911 -96.6756 68° East 462 532 27,000  Level Kansas City Center
10:06PM 37.3453 -96.4986 69° East 457 526 27,000  Level Kansas City Center
10:07PM 37.3906 -96.3533 69° East 454 522 27,000  Level Kansas City Center
10:08PM 37.4353 -96.2067 69° East 451 519 27,000  Level Kansas City Center
10:09PM 37.4811 -96.0556 69° East 452 520 27,000  Level Kansas City Center
10:10PM 37.5275 -95.9006 69° East 458 527 27,000  Level Kansas City Center
10:11PM 37.5750 -95.7458 69° East 466 536 27,000  Level Kansas City Center
10:12PM 37.6183 -95.5981 70° East 457 526 27,000  Level Kansas City Center
10:13PM 37.6625 -95.4528 69° East 448 516 27,000  Level Kansas City Center
10:14PM 37.7072 -95.3042 69° East 449 517 27,000  Level Kansas City Center
10:15PM 37.7522 -95.1547 69° East 451 519 27,000  Level Kansas City Center
10:16PM 37.7981 -94.9953 70° East 454 522 27,000  Level Kansas City Center
10:17PM 37.8408 -94.8531 69° East 454 522 27,000  Level Kansas City Center
10:18PM 37.8886 -94.6858 70° East 454 522 27,000  Level Kansas City Center
10:19PM 37.9339 -94.5464 68° East 456 525 27,000  Level Kansas City Center
10:20PM 38.0094 -94.4317 50° Northeast 445 512 27,000  Level Kansas City Center
10:21PM 38.0964 -94.2967 51° Northeast 442 509 27,000  Level Kansas City Center
10:22PM 38.1711 -94.1819 50° Northeast 441 507 27,000  Level Kansas City Center
10:23PM 38.2492 -94.0683 49° Northeast 444 511 27,000  Level Kansas City Center
10:24PM 38.3289 -93.9517 49° Northeast 440 506 27,000  Level Kansas City Center
10:25PM 38.4389 -93.8244 42° Northeast 440 506 27,000  Level Kansas City Center
10:26PM 38.5208 -93.7078 48° Northeast 439 505 27,000  Level Kansas City Center
10:27PM 38.5969 -93.5778 53° Northeast 450 518 27,000  Level Kansas City Center
10:29PM 38.6417 -93.4336 68° East 449 517 27,000  Level Kansas City Center
10:30PM 38.6461 -93.2750 88° East 447 514 27,000  Level Kansas City Center
10:31PM 38.6517 -93.1178 87° East 443 510 27,000  Level Kansas City Center
10:32PM 38.6578 -92.9550 87° East 449 517 27,000  Level Kansas City Center
10:33PM 38.6633 -92.7883 88° East 459 528 27,000  Level Kansas City Center
10:34PM 38.6692 -92.6231 87° East 462 532 27,000  Level Kansas City Center
10:35PM 38.6731 -92.4589 88° East 461 531 27,000  Level Kansas City Center
10:36PM 38.6775 -92.2933 88° East 462 532 27,000 -180 Level Kansas City Center
10:37PM 38.6828 -92.1297 88° East 459 528 26,700 -840 Descending Kansas City Center
10:38PM 38.6856 -91.9694 89° East 452 520 25,300 -1,440 Descending Kansas City Center
10:39PM 38.6892 -91.8133 88° East 441 507 23,800 -1,680 Descending Kansas City Center
10:40PM 38.6919 -91.6608 89° East 430 495 22,000 -2,040 Descending Kansas City Center
10:41PM 38.6919 -91.5064 90° East 431 496 19,700 -2,460 Descending Kansas City Center
10:42PM 38.6931 -91.3486 89° East 421 484 17,100 -2,340 Descending Kansas City Center
10:43PM 38.6917 -91.2053 91° East 409 471 15,000 -1,800 Descending Kansas City Center
10:44PM 38.6939 -91.0647 89° East 399 459 13,500 -1,680 Descending Kansas City Center
10:45PM 38.6961 -90.9239 89° East 397 457 11,700 -1,140 Descending Kansas City Center
10:46PM 38.6972 -90.8011 89° East 353 406 11,200 -960 Descending Kansas City Center
10:47PM 38.6978 -90.6875 90° East 327 376 9,800 -1,920 Descending Kansas City Center
10:48PM 38.6978 -90.5808 90° East 308 354 7,400 -1,920 Descending Kansas City Center
10:49PM 38.6886 -90.4842 97° East 277 319 6,000 -1,440 Descending Kansas City Center
10:50PM 38.6578 -90.3986 115° Southeast 244 281 4,500 -1,500 Descending Kansas City Center